Pickwick Dam, Tennessee
Current Conditions -  °F | °C
As of 11:35 AM on Wednesday 26 Nov 2014 (Local Time) from KSNH Reporting Station
Clear Clear  
Wind Chill: 43°   Ceiling: Unl
Heat Index: 46°   Visibility: 10mi
Dew Point: 25°   Wind: 7mph
Humidity: 43%   Direction: 150°SSE
Pressure: 30.09"   Gusts: NA
Location:  35.05°N, 88.24°W
Report Text: KSNH 261735Z AUTO 15006KT 10SM CLR 08/M04 A3009 RMK
Loading
Personal Weather Stations






























Interactive Weather Map New forecast layout! Learn more

10-Day Weather Forecast

Advertisements
Track Severe Weather on mobile